EJU68EQ GMAD-LFMN
Flight info
| Callsign | EJU68EQ |
|---|---|
| Flight time | N/A |
| Altitude | 36000 |
| Route | KEGAG UG664 TOPMA UM372 FES UG850 BERUM N860 NARGO/N0434F380 N860 BEGOX M445 SOPET M985 BCN DCT FEVIK DCT DALIN DCT PIVUS DCT DIBER/N0419F340 DCT SOSUR DCT SOFFY DCT MRM DCT ABLAK |
| Aircraft | A320/M-SDE2E3FGHIJ1RWXYZ/LB1 |
Departure
| Time | 2026-04-28 09:40 |
|---|---|
| Airport | Al Massira Airport (GMAD) |
Arrival
| Time | N/A |
|---|---|
| Airport | Nice-Côte d'Azur Airport (LFMN) |
| Time | Latitude | Longitude | Altitude | Speed | Heading |
|---|---|---|---|---|---|
| 2026-04-28 09:13 | 30.32880 | -9.41095 | 231 ft | 0 kts | 2° |
| 2026-04-28 09:29 | 30.32879 | -9.41095 | 231 ft | 2 kts | 2° |
| 2026-04-28 09:29 | 30.32853 | -9.41097 | 234 ft | 4 kts | 11° |
| 2026-04-28 09:30 | 30.32827 | -9.41106 | 232 ft | 4 kts | 32° |
| 2026-04-28 09:30 | 30.32811 | -9.41126 | 234 ft | 3 kts | 89° |
| 2026-04-28 09:30 | 30.32811 | -9.41134 | 235 ft | 0 kts | 91° |
| 2026-04-28 09:33 | 30.32811 | -9.41118 | 232 ft | 4 kts | 91° |
| 2026-04-28 09:33 | 30.32809 | -9.41069 | 231 ft | 8 kts | 91° |
| 2026-04-28 09:34 | 30.32808 | -9.40987 | 231 ft | 11 kts | 91° |
| 2026-04-28 09:34 | 30.32805 | -9.40892 | 231 ft | 12 kts | 92° |
| 2026-04-28 09:34 | 30.32803 | -9.40791 | 231 ft | 12 kts | 91° |
| 2026-04-28 09:34 | 30.32795 | -9.40701 | 231 ft | 11 kts | 112° |
| 2026-04-28 09:35 | 30.32734 | -9.40663 | 231 ft | 11 kts | 179° |
| 2026-04-28 09:35 | 30.32652 | -9.40666 | 231 ft | 13 kts | 180° |
| 2026-04-28 09:35 | 30.32555 | -9.40668 | 233 ft | 15 kts | 181° |
| 2026-04-28 09:35 | 30.32461 | -9.40655 | 234 ft | 14 kts | 148° |
| 2026-04-28 09:36 | 30.32436 | -9.40561 | 231 ft | 12 kts | 91° |
| 2026-04-28 09:36 | 30.32434 | -9.40465 | 231 ft | 12 kts | 91° |
| 2026-04-28 09:36 | 30.32432 | -9.40375 | 231 ft | 11 kts | 91° |
| 2026-04-28 09:36 | 30.32430 | -9.40281 | 231 ft | 15 kts | 91° |
| 2026-04-28 09:37 | 30.32426 | -9.40135 | 231 ft | 20 kts | 92° |
| 2026-04-28 09:37 | 30.32423 | -9.39978 | 231 ft | 19 kts | 91° |
| 2026-04-28 09:37 | 30.32419 | -9.39836 | 231 ft | 17 kts | 91° |
| 2026-04-28 09:37 | 30.32416 | -9.39708 | 231 ft | 15 kts | 91° |
| 2026-04-28 09:38 | 30.32414 | -9.39595 | 231 ft | 13 kts | 91° |
| 2026-04-28 09:38 | 30.32390 | -9.39504 | 231 ft | 11 kts | 142° |
| 2026-04-28 09:38 | 30.32304 | -9.39497 | 231 ft | 14 kts | 182° |
| 2026-04-28 09:38 | 30.32227 | -9.39557 | 231 ft | 15 kts | 256° |
| 2026-04-28 09:39 | 30.32226 | -9.39606 | 231 ft | 2 kts | 272° |
| 2026-04-28 09:39 | 30.32230 | -9.39809 | 231 ft | 60 kts | 271° |
| 2026-04-28 09:39 | 30.32247 | -9.40547 | 231 ft | 120 kts | 271° |
| 2026-04-28 09:39 | 30.32273 | -9.41697 | 317 ft | 157 kts | 270° |
| 2026-04-28 09:40 | 30.32324 | -9.42945 | 926 ft | 156 kts | 272° |
| 2026-04-28 09:40 | 30.32392 | -9.44218 | 1519 ft | 159 kts | 273° |
| 2026-04-28 09:40 | 30.32456 | -9.45512 | 2093 ft | 162 kts | 273° |
| 2026-04-28 09:40 | 30.32517 | -9.46821 | 2670 ft | 164 kts | 273° |
| 2026-04-28 09:41 | 30.32579 | -9.48151 | 3228 ft | 167 kts | 273° |
| 2026-04-28 09:41 | 30.32465 | -9.49488 | 3758 ft | 171 kts | 241° |
| 2026-04-28 09:41 | 30.31583 | -9.50382 | 4274 ft | 175 kts | 198° |
| 2026-04-28 09:41 | 30.30377 | -9.50399 | 4797 ft | 177 kts | 158° |
| 2026-04-28 09:42 | 30.29437 | -9.49516 | 5290 ft | 178 kts | 116° |
| 2026-04-28 09:42 | 30.29223 | -9.48132 | 5788 ft | 178 kts | 75° |
| 2026-04-28 09:42 | 30.29615 | -9.46737 | 6130 ft | 191 kts | 68° |
| 2026-04-28 09:42 | 30.30089 | -9.45202 | 6309 ft | 214 kts | 68° |
| 2026-04-28 09:43 | 30.30625 | -9.43481 | 6501 ft | 240 kts | 68° |
| 2026-04-28 09:43 | 30.31218 | -9.41571 | 6806 ft | 264 kts | 69° |
| 2026-04-28 09:43 | 30.31852 | -9.39509 | 7342 ft | 277 kts | 69° |
| 2026-04-28 09:43 | 30.32488 | -9.37384 | 8093 ft | 282 kts | 70° |
| 2026-04-28 09:44 | 30.33079 | -9.35202 | 8888 ft | 286 kts | 71° |
| 2026-04-28 09:44 | 30.33650 | -9.32978 | 9686 ft | 290 kts | 72° |
| 2026-04-28 09:44 | 30.34220 | -9.30720 | 10421 ft | 294 kts | 72° |
| 2026-04-28 09:44 | 30.34803 | -9.28426 | 11107 ft | 300 kts | 72° |
| 2026-04-28 09:45 | 30.35402 | -9.26087 | 11785 ft | 306 kts | 72° |
| 2026-04-28 09:45 | 30.36015 | -9.23705 | 12455 ft | 312 kts | 73° |
| 2026-04-28 09:45 | 30.36641 | -9.21283 | 13132 ft | 316 kts | 73° |
| 2026-04-28 09:45 | 30.37275 | -9.18822 | 13798 ft | 321 kts | 73° |
| 2026-04-28 09:46 | 30.37918 | -9.16326 | 14387 ft | 326 kts | 73° |
| 2026-04-28 09:46 | 30.38569 | -9.13794 | 14995 ft | 330 kts | 73° |
| 2026-04-28 09:46 | 30.39258 | -9.11248 | 15600 ft | 333 kts | 67° |
| 2026-04-28 09:46 | 30.40462 | -9.08932 | 15960 ft | 344 kts | 46° |
| 2026-04-28 09:47 | 30.42352 | -9.07134 | 16097 ft | 361 kts | 33° |
| 2026-04-28 09:47 | 30.44465 | -9.05451 | 16356 ft | 374 kts | 32° |
| 2026-04-28 09:47 | 30.46634 | -9.03738 | 16878 ft | 380 kts | 32° |
| 2026-04-28 09:47 | 30.48826 | -9.01999 | 17456 ft | 384 kts | 33° |
| 2026-04-28 09:48 | 30.51036 | -9.00236 | 18051 ft | 387 kts | 33° |
| 2026-04-28 09:48 | 30.52504 | -8.99058 | 18414 ft | 389 kts | 33° |
| 2026-04-28 09:48 | 30.55496 | -8.96645 | 19099 ft | 394 kts | 33° |
| 2026-04-28 09:48 | 30.57751 | -8.94822 | 19599 ft | 397 kts | 33° |
| 2026-04-28 09:49 | 30.60027 | -8.92984 | 20100 ft | 400 kts | 33° |
| 2026-04-28 09:49 | 30.62318 | -8.91135 | 20598 ft | 403 kts | 33° |
| 2026-04-28 09:49 | 30.64632 | -8.89270 | 21087 ft | 406 kts | 33° |
| 2026-04-28 09:49 | 30.66963 | -8.87390 | 21559 ft | 410 kts | 33° |
| 2026-04-28 09:50 | 30.69313 | -8.85496 | 22037 ft | 413 kts | 33° |
| 2026-04-28 09:50 | 30.71680 | -8.83586 | 22498 ft | 416 kts | 33° |
| 2026-04-28 09:50 | 30.74063 | -8.81660 | 22958 ft | 419 kts | 33° |
| 2026-04-28 09:50 | 30.76461 | -8.79717 | 23415 ft | 422 kts | 33° |
| 2026-04-28 09:51 | 30.78877 | -8.77756 | 23819 ft | 425 kts | 33° |
| 2026-04-28 09:51 | 30.81306 | -8.75784 | 24195 ft | 427 kts | 33° |
| 2026-04-28 09:51 | 30.83754 | -8.73801 | 24582 ft | 430 kts | 33° |
| 2026-04-28 09:51 | 30.86218 | -8.71810 | 24931 ft | 432 kts | 33° |
| 2026-04-28 09:52 | 30.88693 | -8.69805 | 25286 ft | 435 kts | 33° |
| 2026-04-28 09:52 | 30.91180 | -8.67787 | 25652 ft | 437 kts | 33° |
| 2026-04-28 09:52 | 30.93683 | -8.65753 | 26005 ft | 440 kts | 33° |
| 2026-04-28 09:52 | 30.96198 | -8.63705 | 26370 ft | 442 kts | 33° |
| 2026-04-28 09:53 | 30.98718 | -8.61647 | 26685 ft | 444 kts | 33° |
| 2026-04-28 09:53 | 31.01254 | -8.59577 | 27017 ft | 446 kts | 33° |
| 2026-04-28 09:53 | 31.03806 | -8.57495 | 27383 ft | 448 kts | 33° |
| 2026-04-28 09:53 | 31.06365 | -8.55407 | 27716 ft | 450 kts | 33° |
| 2026-04-28 09:54 | 31.08936 | -8.53310 | 28059 ft | 452 kts | 33° |
| 2026-04-28 09:54 | 31.11519 | -8.51200 | 28389 ft | 454 kts | 33° |
| 2026-04-28 09:54 | 31.14116 | -8.49081 | 28720 ft | 457 kts | 33° |
| 2026-04-28 09:54 | 31.16728 | -8.46951 | 29046 ft | 459 kts | 33° |
| 2026-04-28 09:55 | 31.19350 | -8.44808 | 29377 ft | 461 kts | 33° |
| 2026-04-28 09:55 | 31.21984 | -8.42654 | 29686 ft | 463 kts | 33° |
| 2026-04-28 09:55 | 31.24630 | -8.40488 | 29995 ft | 465 kts | 33° |
| 2026-04-28 09:55 | 31.27287 | -8.38312 | 30244 ft | 467 kts | 33° |
| 2026-04-28 09:56 | 31.29956 | -8.36123 | 30478 ft | 470 kts | 33° |
| 2026-04-28 09:56 | 31.32635 | -8.33924 | 30700 ft | 472 kts | 33° |
| 2026-04-28 09:56 | 31.35328 | -8.31712 | 30948 ft | 474 kts | 33° |
| 2026-04-28 09:56 | 31.38028 | -8.29491 | 31223 ft | 475 kts | 33° |
| 2026-04-28 09:57 | 31.40727 | -8.27270 | 31563 ft | 474 kts | 33° |
| 2026-04-28 09:57 | 31.43423 | -8.25046 | 31889 ft | 474 kts | 33° |
| 2026-04-28 09:57 | 31.46115 | -8.22823 | 32196 ft | 474 kts | 33° |
| 2026-04-28 09:57 | 31.48812 | -8.20597 | 32512 ft | 474 kts | 32° |
| 2026-04-28 09:58 | 31.51507 | -8.18373 | 32824 ft | 474 kts | 32° |
| 2026-04-28 09:58 | 31.54202 | -8.16151 | 33148 ft | 474 kts | 32° |
| 2026-04-28 09:58 | 31.56899 | -8.13924 | 33456 ft | 474 kts | 32° |
| 2026-04-28 09:58 | 31.59590 | -8.11701 | 33774 ft | 473 kts | 32° |
| 2026-04-28 09:59 | 31.62175 | -8.09291 | 34063 ft | 476 kts | 40° |
| 2026-04-28 09:59 | 31.64565 | -8.06599 | 34322 ft | 477 kts | 41° |
| 2026-04-28 09:59 | 31.66955 | -8.03901 | 34577 ft | 476 kts | 41° |
| 2026-04-28 09:59 | 31.69345 | -8.01213 | 34822 ft | 476 kts | 41° |
| 2026-04-28 10:00 | 31.71740 | -7.98525 | 35052 ft | 476 kts | 41° |
| 2026-04-28 10:00 | 31.74131 | -7.95836 | 35294 ft | 476 kts | 41° |
| 2026-04-28 10:00 | 31.76520 | -7.93144 | 35528 ft | 476 kts | 41° |
| 2026-04-28 10:00 | 31.78911 | -7.90448 | 35755 ft | 476 kts | 41° |
| 2026-04-28 10:01 | 31.81294 | -7.87754 | 35941 ft | 476 kts | 41° |
| 2026-04-28 10:01 | 31.83688 | -7.85044 | 35994 ft | 480 kts | 41° |
| 2026-04-28 10:01 | 31.88541 | -7.79555 | 35989 ft | 486 kts | 41° |
| 2026-04-28 10:02 | 31.93423 | -7.74031 | 35989 ft | 487 kts | 41° |
| 2026-04-28 10:02 | 31.98298 | -7.68492 | 35990 ft | 487 kts | 41° |
| 2026-04-28 10:03 | 32.03167 | -7.62955 | 35985 ft | 486 kts | 42° |
| 2026-04-28 10:03 | 32.07998 | -7.57444 | 35989 ft | 486 kts | 42° |
| 2026-04-28 10:04 | 32.12889 | -7.51860 | 35990 ft | 486 kts | 42° |
| 2026-04-28 10:04 | 32.17708 | -7.46349 | 35992 ft | 485 kts | 42° |
| 2026-04-28 10:05 | 32.22555 | -7.40804 | 35996 ft | 485 kts | 42° |
| 2026-04-28 10:05 | 32.27433 | -7.35223 | 35999 ft | 485 kts | 43° |
| 2026-04-28 10:06 | 32.32265 | -7.29679 | 35997 ft | 484 kts | 43° |
| 2026-04-28 10:06 | 32.37093 | -7.24132 | 35990 ft | 483 kts | 43° |
| 2026-04-28 10:07 | 32.41903 | -7.18581 | 35991 ft | 483 kts | 43° |
| 2026-04-28 10:07 | 32.46714 | -7.13022 | 35983 ft | 483 kts | 43° |
| 2026-04-28 10:08 | 32.51523 | -7.07469 | 35988 ft | 482 kts | 43° |